createdAt,value
2017-02-19T00:00:10.153Z,1.26
2017-02-19T00:00:50.724Z,1.26
2017-02-19T00:01:31.289Z,1.23
2017-02-19T00:02:11.855Z,1.26
2017-02-19T00:02:52.428Z,1.28
2017-02-19T00:03:34.020Z,1.26
2017-02-19T00:04:14.588Z,1.26
2017-02-19T00:04:55.172Z,1.22
2017-02-19T00:05:35.766Z,1.2
2017-02-19T00:06:16.355Z,1.22
2017-02-19T00:06:56.915Z,1.19
2017-02-19T00:07:37.511Z,1.22
2017-02-19T00:08:18.081Z,1.14
2017-02-19T00:09:00.683Z,1.22
2017-02-19T00:09:41.287Z,1.26
2017-02-19T00:10:21.854Z,1.24
2017-02-19T00:11:02.430Z,1.24
2017-02-19T00:11:42.993Z,1.24
2017-02-19T00:12:23.554Z,1.23
2017-02-19T00:13:04.127Z,1.23
2017-02-19T00:13:44.716Z,1.23
2017-02-19T00:14:25.311Z,1.26
2017-02-19T00:15:05.883Z,1.23
2017-02-19T00:15:46.445Z,1.24
2017-02-19T00:16:27.021Z,1.28
2017-02-19T00:17:07.617Z,1.22
2017-02-19T00:17:49.184Z,1.2
2017-02-19T00:18:30.759Z,1.22
2017-02-19T00:19:11.337Z,1.05
2017-02-19T00:19:51.926Z,1.14
2017-02-19T00:20:32.511Z,1.08
2017-02-19T00:21:13.082Z,1.12
2017-02-19T00:21:53.659Z,1.1
2017-02-19T00:22:34.228Z,1.12
2017-02-19T00:23:16.812Z,1.16
2017-02-19T00:23:58.435Z,1.12
2017-02-19T00:24:38.987Z,1.14
2017-02-19T00:25:19.549Z,1.06
2017-02-19T00:26:00.121Z,1.08
2017-02-19T00:26:40.678Z,1.02
2017-02-19T00:27:21.259Z,1.02
2017-02-19T00:28:01.835Z,1.04
2017-02-19T00:28:44.423Z,1.05
2017-02-19T00:29:25.002Z,1.04
2017-02-19T00:30:05.567Z,1.05
2017-02-19T00:30:46.126Z,1.04
2017-02-19T00:31:26.686Z,1.08
2017-02-19T00:32:07.265Z,1.06
2017-02-19T00:32:48.856Z,1.08
2017-02-19T00:33:29.420Z,0.99
2017-02-19T00:34:09.977Z,1.05
2017-02-19T00:34:50.558Z,0.98
2017-02-19T00:35:31.174Z,0.98
2017-02-19T00:36:13.756Z,0.95
2017-02-19T00:36:54.314Z,0.94
2017-02-19T00:37:34.874Z,0.94
2017-02-19T00:38:15.442Z,0.99
2017-02-19T00:38:56.005Z,0.96
2017-02-19T00:39:38.572Z,0.95
2017-02-19T00:40:19.135Z,0.94
2017-02-19T00:40:59.711Z,0.94
2017-02-19T00:41:40.311Z,0.96
2017-02-19T00:42:20.847Z,0.98
2017-02-19T00:43:01.413Z,0.96
2017-02-19T00:43:41.994Z,0.92
2017-02-19T00:44:22.564Z,0.94
2017-02-19T00:45:03.133Z,1.02
2017-02-19T00:45:44.696Z,0.96
2017-02-19T00:46:25.454Z,1.01
2017-02-19T00:47:06.059Z,0.92
2017-02-19T00:47:46.613Z,0.94
2017-02-19T00:48:27.189Z,0.98
2017-02-19T00:49:12.414Z,0.98
2017-02-19T00:49:52.974Z,0.94
2017-02-19T00:50:33.547Z,0.96
2017-02-19T00:51:14.112Z,0.94
2017-02-19T00:51:54.709Z,1.01
2017-02-19T00:52:35.278Z,0.94
2017-02-19T00:53:15.859Z,0.98
2017-02-19T00:53:56.445Z,0.96
2017-02-19T00:54:37.047Z,0.96
2017-02-19T00:55:17.654Z,0.99
2017-02-19T00:55:58.238Z,0.99
2017-02-19T00:56:38.812Z,0.94
2017-02-19T00:57:19.372Z,0.98
2017-02-19T00:57:59.950Z,0.94
2017-02-19T00:58:41.518Z,0.96
2017-02-19T00:59:22.093Z,0.99
2017-02-19T01:00:03.663Z,0.94
2017-02-19T01:00:44.220Z,0.95
2017-02-19T01:01:25.777Z,0.96
2017-02-19T01:02:06.340Z,1.01
2017-02-19T01:02:48.918Z,0.96
2017-02-19T01:03:29.497Z,1.02
2017-02-19T01:04:11.460Z,0.94
2017-02-19T01:04:52.018Z,0.94
2017-02-19T01:05:33.601Z,0.94
2017-02-19T01:06:15.181Z,0.95
2017-02-19T01:06:56.750Z,0.98
2017-02-19T01:07:37.327Z,0.94
2017-02-19T01:08:18.901Z,0.95
2017-02-19T01:08:59.500Z,1.04
2017-02-19T01:09:40.052Z,0.87
2017-02-19T01:10:20.608Z,0.87
2017-02-19T01:11:01.203Z,0.92
2017-02-19T01:11:41.766Z,0.84
2017-02-19T01:12:22.339Z,0.87
2017-02-19T01:13:02.922Z,0.87
2017-02-19T01:13:43.487Z,0.91
2017-02-19T01:14:24.056Z,0.91
2017-02-19T01:15:04.643Z,0.99
2017-02-19T01:15:45.207Z,0.94
2017-02-19T01:16:25.762Z,0.92
2017-02-19T01:17:06.337Z,0.95
2017-02-19T01:17:46.903Z,0.98
2017-02-19T01:18:27.483Z,0.95
2017-02-19T01:19:08.037Z,0.95
2017-02-19T01:19:48.594Z,0.92
2017-02-19T01:20:29.172Z,0.94
2017-02-19T01:21:09.748Z,0.95
2017-02-19T01:21:50.363Z,0.95
2017-02-19T01:22:32.026Z,0.98
2017-02-19T01:23:12.686Z,0.92
2017-02-19T01:23:53.354Z,0.94
2017-02-19T01:24:34.021Z,0.94
2017-02-19T01:25:14.581Z,0.94
2017-02-19T01:25:55.183Z,0.95
2017-02-19T01:26:35.753Z,0.98
2017-02-19T01:27:16.400Z,0.96
2017-02-19T01:27:56.984Z,0.94
2017-02-19T01:28:37.590Z,0.88
2017-02-19T01:29:18.140Z,0.88
2017-02-19T01:29:58.803Z,0.81
2017-02-19T01:30:39.407Z,0.92
2017-02-19T01:31:19.992Z,0.84
2017-02-19T01:32:00.553Z,0.92
2017-02-19T01:32:42.135Z,0.84
2017-02-19T01:33:22.720Z,0.83
2017-02-19T01:34:03.332Z,0.86
2017-02-19T01:34:43.930Z,0.83
2017-02-19T01:35:24.545Z,0.81
2017-02-19T01:36:05.131Z,0.81
2017-02-19T01:36:46.751Z,0.81
2017-02-19T01:37:27.320Z,0.84
2017-02-19T01:38:07.983Z,0.86
2017-02-19T01:38:48.661Z,0.83
2017-02-19T01:39:29.267Z,0.81
2017-02-19T01:40:09.821Z,0.86
2017-02-19T01:40:51.409Z,0.86
2017-02-19T01:41:32.982Z,0.88
2017-02-19T01:42:14.638Z,0.86
2017-02-19T01:42:55.197Z,0.83
2017-02-19T01:43:35.852Z,0.84
2017-02-19T01:44:16.443Z,0.78
2017-02-19T01:44:57.044Z,0.77
2017-02-19T01:45:37.603Z,0.81
2017-02-19T01:46:20.208Z,0.81
2017-02-19T01:47:00.861Z,0.83
2017-02-19T01:47:43.453Z,0.74
2017-02-19T01:48:26.059Z,0.8
2017-02-19T01:49:06.735Z,0.77
2017-02-19T01:49:47.357Z,0.81
2017-02-19T01:50:27.929Z,0.77
2017-02-19T01:51:08.551Z,0.78
2017-02-19T01:51:49.135Z,0.77
2017-02-19T01:52:29.783Z,0.78
2017-02-19T01:53:10.360Z,0.81
2017-02-19T01:53:50.956Z,0.86
2017-02-19T01:54:31.518Z,0.86
2017-02-19T01:55:12.070Z,0.86
2017-02-19T01:55:57.319Z,0.86
2017-02-19T01:56:37.884Z,0.83
2017-02-19T01:57:20.490Z,0.87
2017-02-19T01:58:01.077Z,0.81
2017-02-19T01:58:41.643Z,0.86
2017-02-19T01:59:22.274Z,0.84
2017-02-19T02:00:02.882Z,0.86
2017-02-19T02:00:43.479Z,0.88
2017-02-19T02:01:24.112Z,0.88
2017-02-19T02:02:04.790Z,0.88
2017-02-19T02:02:46.410Z,0.8
2017-02-19T02:03:26.978Z,0.77
2017-02-19T02:04:07.561Z,0.81
2017-02-19T02:04:52.925Z,0.83
2017-02-19T02:05:33.575Z,0.87
2017-02-19T02:06:14.231Z,0.78
2017-02-19T02:06:54.886Z,0.78
2017-02-19T02:07:35.540Z,0.81
2017-02-19T02:08:16.150Z,0.78
2017-02-19T02:08:56.738Z,0.78
2017-02-19T02:09:37.402Z,0.78
2017-02-19T02:10:18.007Z,0.81
2017-02-19T02:10:58.662Z,0.68
2017-02-19T02:11:39.327Z,0.77
2017-02-19T02:12:21.051Z,0.69
2017-02-19T02:13:02.728Z,0.73
2017-02-19T02:13:43.318Z,0.65
2017-02-19T02:14:23.967Z,0.7
2017-02-19T02:15:04.625Z,0.8
2017-02-19T02:15:46.214Z,0.78
2017-02-19T02:16:26.856Z,0.73
2017-02-19T02:17:07.504Z,0.65
2017-02-19T02:17:48.158Z,0.73
2017-02-19T02:18:28.815Z,0.76
2017-02-19T02:19:09.463Z,0.74
2017-02-19T02:19:51.038Z,0.69
2017-02-19T02:20:31.691Z,0.69
2017-02-19T02:21:13.268Z,0.7
2017-02-19T02:21:53.847Z,0.68
2017-02-19T02:22:35.443Z,0.69
2017-02-19T02:23:17.075Z,0.74
2017-02-19T02:23:58.733Z,0.73
2017-02-19T02:24:39.415Z,0.73
2017-02-19T02:25:20.050Z,0.69
2017-02-19T02:26:00.694Z,0.76
2017-02-19T02:26:42.279Z,0.76
2017-02-19T02:27:22.922Z,0.74
2017-02-19T02:28:03.628Z,0.73
2017-02-19T02:28:44.255Z,0.81
2017-02-19T02:29:24.879Z,0.76
2017-02-19T02:30:07.524Z,0.69
2017-02-19T02:30:48.124Z,0.81
2017-02-19T02:31:28.705Z,0.8
2017-02-19T02:32:09.340Z,0.83
2017-02-19T02:32:49.937Z,0.8
2017-02-19T02:33:30.527Z,0.78
2017-02-19T02:34:11.079Z,0.65
2017-02-19T02:34:51.747Z,0.76
2017-02-19T02:35:33.357Z,0.73
2017-02-19T02:36:13.958Z,0.7
2017-02-19T02:36:54.575Z,0.7
2017-02-19T02:37:35.183Z,0.77
2017-02-19T02:38:15.889Z,0.76
2017-02-19T02:38:56.439Z,0.77
2017-02-19T02:39:37.017Z,0.7
2017-02-19T02:40:17.687Z,0.77
2017-02-19T02:40:58.325Z,0.7
2017-02-19T02:41:38.896Z,0.73
2017-02-19T02:42:19.549Z,0.77
2017-02-19T02:43:00.179Z,0.76
2017-02-19T02:43:40.741Z,0.8
2017-02-19T02:44:22.321Z,0.81
2017-02-19T02:45:03.898Z,0.78
2017-02-19T02:45:44.465Z,0.88
2017-02-19T02:46:25.035Z,0.84
2017-02-19T02:47:05.615Z,0.87
2017-02-19T02:47:46.170Z,0.92
2017-02-19T02:48:27.870Z,0.87
2017-02-19T02:49:13.333Z,0.99
2017-02-19T02:49:53.914Z,1.01
2017-02-19T02:50:34.575Z,0.96
2017-02-19T02:51:15.241Z,0.99
2017-02-19T02:51:55.834Z,0.96
2017-02-19T02:52:36.397Z,0.99
2017-02-19T02:53:16.972Z,0.98
2017-02-19T02:53:57.553Z,1.08
2017-02-19T02:54:38.136Z,1.01
2017-02-19T02:55:18.789Z,1.01
2017-02-19T02:55:59.442Z,1.08
2017-02-19T02:56:42.041Z,1.08
2017-02-19T02:57:28.325Z,1.1
2017-02-19T02:58:08.980Z,1.14
2017-02-19T02:58:49.632Z,1.13
2017-02-19T02:59:30.284Z,1.13
2017-02-19T03:00:10.943Z,1.23
2017-02-19T03:00:51.590Z,1.2
2017-02-19T03:01:32.248Z,1.22
2017-02-19T03:02:14.818Z,1.26
2017-02-19T03:02:55.392Z,1.22
2017-02-19T03:03:36.043Z,1.26
2017-02-19T03:04:16.697Z,1.24
2017-02-19T03:04:57.262Z,1.32
2017-02-19T03:05:37.833Z,1.28
2017-02-19T03:06:18.550Z,1.23
2017-02-19T03:07:00.230Z,1.3
2017-02-19T03:07:40.786Z,1.28
2017-02-19T03:08:21.474Z,1.28
2017-02-19T03:09:03.062Z,1.4
2017-02-19T03:09:45.708Z,1.37
2017-02-19T03:10:26.289Z,1.35
2017-02-19T03:11:07.966Z,1.34
2017-02-19T03:11:48.545Z,1.38
2017-02-19T03:12:30.164Z,1.35
2017-02-19T03:13:10.724Z,1.28
2017-02-19T03:13:52.302Z,1.32
2017-02-19T03:14:32.923Z,1.3
2017-02-19T03:15:14.525Z,1.35
2017-02-19T03:15:55.111Z,1.41
2017-02-19T03:16:35.732Z,1.49
2017-02-19T03:17:17.298Z,1.42
2017-02-19T03:17:58.880Z,1.42
2017-02-19T03:18:39.536Z,1.48
2017-02-19T03:19:20.188Z,1.5
2017-02-19T03:20:01.761Z,1.5
2017-02-19T03:20:43.376Z,1.49
2017-02-19T03:21:25.099Z,1.45
2017-02-19T03:22:05.667Z,1.5
2017-02-19T03:22:46.522Z,1.49
2017-02-19T03:23:27.115Z,1.53
2017-02-19T03:24:07.713Z,1.55
2017-02-19T03:24:48.276Z,1.52
2017-02-19T03:25:29.843Z,1.52
2017-02-19T03:26:10.489Z,1.56
2017-02-19T03:26:51.053Z,1.52
2017-02-19T03:27:43.687Z,1.55
2017-02-19T03:28:24.328Z,1.58
2017-02-19T03:29:04.889Z,1.55
2017-02-19T03:29:45.545Z,1.52
2017-02-19T03:30:26.182Z,1.6
2017-02-19T03:31:06.752Z,1.6
2017-02-19T03:31:47.324Z,1.62
2017-02-19T03:32:28.914Z,1.62
2017-02-19T03:33:09.512Z,1.58
2017-02-19T03:33:50.086Z,1.62
2017-02-19T03:34:30.750Z,1.7
2017-02-19T03:35:11.423Z,1.67
2017-02-19T03:35:54.073Z,1.7
2017-02-19T03:36:35.705Z,1.68
2017-02-19T03:37:16.354Z,1.71
2017-02-19T03:37:57.004Z,1.74
2017-02-19T03:38:37.657Z,1.66
2017-02-19T03:39:20.271Z,1.76
2017-02-19T03:40:00.910Z,1.76
2017-02-19T03:40:41.562Z,1.67
2017-02-19T03:41:22.218Z,1.71
2017-02-19T03:42:02.869Z,1.71
2017-02-19T03:42:43.527Z,1.66
2017-02-19T03:43:25.195Z,1.73
2017-02-19T03:44:05.848Z,1.7
2017-02-19T03:44:46.512Z,1.74
2017-02-19T03:45:27.496Z,1.68
2017-02-19T03:46:08.070Z,1.73
2017-02-19T03:46:48.728Z,1.71
2017-02-19T03:47:29.319Z,1.78
2017-02-19T03:48:09.916Z,1.76
2017-02-19T03:48:50.480Z,1.78
2017-02-19T03:49:31.034Z,1.81
2017-02-19T03:50:11.620Z,1.78
2017-02-19T03:50:52.277Z,1.76
2017-02-19T03:51:33.955Z,1.77
2017-02-19T03:52:14.609Z,1.76
2017-02-19T03:52:55.282Z,1.73
2017-02-19T03:53:35.920Z,1.78
2017-02-19T03:54:18.551Z,1.71
2017-02-19T03:54:59.103Z,1.76
2017-02-19T03:55:39.813Z,1.78
2017-02-19T03:56:20.468Z,1.7
2017-02-19T03:57:01.123Z,1.77
2017-02-19T03:57:41.781Z,1.7
2017-02-19T03:58:24.371Z,1.77
2017-02-19T03:59:05.024Z,1.68
2017-02-19T03:59:45.684Z,1.77
2017-02-19T04:00:26.274Z,1.78
2017-02-19T04:01:06.854Z,1.77
2017-02-19T04:01:48.517Z,1.78
2017-02-19T04:02:29.108Z,1.78
2017-02-19T04:03:10.732Z,1.71
2017-02-19T04:03:51.291Z,1.77
2017-02-19T04:04:31.956Z,1.73
2017-02-19T04:05:12.551Z,1.78
2017-02-19T04:05:53.136Z,1.84
2017-02-19T04:06:33.701Z,1.8
2017-02-19T04:07:15.380Z,1.8
2017-02-19T04:07:55.970Z,1.8
2017-02-19T04:08:36.564Z,1.71
2017-02-19T04:09:17.184Z,1.81
2017-02-19T04:09:57.787Z,1.73
2017-02-19T04:10:38.378Z,1.71
2017-02-19T04:11:18.974Z,1.81
2017-02-19T04:11:59.532Z,1.81
2017-02-19T04:12:41.218Z,1.8
2017-02-19T04:13:21.833Z,1.8
2017-02-19T04:14:02.400Z,1.84
2017-02-19T04:14:42.965Z,1.81
2017-02-19T04:15:23.625Z,1.88
2017-02-19T04:16:04.288Z,1.87
2017-02-19T04:16:44.930Z,1.81
2017-02-19T04:17:25.581Z,1.85
2017-02-19T04:18:06.223Z,1.78
2017-02-19T04:18:46.929Z,1.74
2017-02-19T04:19:27.937Z,1.8
2017-02-19T04:20:08.600Z,1.81
2017-02-19T04:20:49.252Z,1.84
2017-02-19T04:21:30.827Z,1.78
2017-02-19T04:22:11.486Z,1.76
2017-02-19T04:22:52.134Z,1.71
2017-02-19T04:23:32.788Z,1.8
2017-02-19T04:24:13.440Z,1.81
2017-02-19T04:24:54.093Z,1.81
2017-02-19T04:25:36.668Z,1.76
2017-02-19T04:26:18.250Z,1.78
2017-02-19T04:26:58.944Z,1.71
2017-02-19T04:27:39.595Z,1.8
2017-02-19T04:28:20.226Z,1.7
2017-02-19T04:29:00.886Z,1.87
2017-02-19T04:29:41.531Z,1.8
2017-02-19T04:30:22.185Z,1.85
2017-02-19T04:31:02.836Z,1.84
2017-02-19T04:31:43.479Z,1.84
2017-02-19T04:32:24.143Z,1.81
2017-02-19T04:33:04.802Z,1.84
2017-02-19T04:33:45.464Z,1.84
2017-02-19T04:34:26.101Z,1.85
2017-02-19T04:35:06.753Z,1.88
2017-02-19T04:35:47.403Z,1.89
2017-02-19T04:36:27.958Z,1.84
2017-02-19T04:37:08.612Z,1.87
2017-02-19T04:37:49.289Z,1.88
2017-02-19T04:38:29.914Z,1.89
2017-02-19T04:39:10.585Z,1.89
2017-02-19T04:39:52.654Z,1.89
2017-02-19T04:40:33.247Z,1.88
2017-02-19T04:41:14.200Z,1.84
2017-02-19T04:41:54.818Z,1.85
2017-02-19T04:42:36.479Z,1.85
2017-02-19T04:43:17.056Z,1.92
2017-02-19T04:43:57.712Z,1.84
2017-02-19T04:44:42.840Z,1.88
2017-02-19T04:45:23.400Z,1.94
2017-02-19T04:46:04.072Z,1.92
2017-02-19T04:46:44.697Z,1.95
2017-02-19T04:47:25.265Z,1.92
2017-02-19T04:48:05.922Z,1.94
2017-02-19T04:48:46.551Z,1.94
2017-02-19T04:49:27.103Z,1.95
2017-02-19T04:50:07.778Z,1.99
2017-02-19T04:50:48.410Z,1.95
2017-02-19T04:51:29.023Z,2
2017-02-19T04:52:09.625Z,1.94
2017-02-19T04:52:50.269Z,2.06
2017-02-19T04:53:30.934Z,2.08
2017-02-19T04:54:12.612Z,2.07
2017-02-19T04:54:53.266Z,2.08
2017-02-19T04:55:33.920Z,2.04
2017-02-19T04:56:14.586Z,2
2017-02-19T04:56:55.150Z,1.99
2017-02-19T04:57:35.771Z,1.97
2017-02-19T04:58:16.429Z,2.06
2017-02-19T04:58:59.028Z,2.04
2017-02-19T04:59:39.721Z,1.97
2017-02-19T05:00:20.286Z,2.08
2017-02-19T05:01:00.864Z,2.11
2017-02-19T05:01:41.469Z,2.02
2017-02-19T05:02:22.033Z,2.04
2017-02-19T05:03:02.616Z,2.06
2017-02-19T05:03:43.189Z,2.04
2017-02-19T05:04:24.867Z,2.04
2017-02-19T05:05:07.549Z,2.08
2017-02-19T05:05:49.224Z,2.06
2017-02-19T05:06:29.877Z,2.13
2017-02-19T05:07:10.528Z,2.14
2017-02-19T05:07:51.180Z,2.07
2017-02-19T05:08:31.835Z,2.07
2017-02-19T05:09:12.487Z,2.1
2017-02-19T05:09:53.140Z,2.11
2017-02-19T05:10:33.700Z,2.06
2017-02-19T05:11:14.372Z,2.08
2017-02-19T05:11:54.952Z,2.07
2017-02-19T05:12:35.546Z,2.04
2017-02-19T05:13:16.109Z,2.1
2017-02-19T05:13:56.763Z,2.08
2017-02-19T05:14:37.356Z,2.13
2017-02-19T05:15:17.951Z,2.17
2017-02-19T05:15:58.516Z,2.08
2017-02-19T05:16:39.159Z,1.97
2017-02-19T05:17:19.832Z,2.06
2017-02-19T05:18:00.460Z,1.99
2017-02-19T05:18:42.037Z,2.04
2017-02-19T05:19:22.688Z,2.08
2017-02-19T05:20:03.342Z,2.06
2017-02-19T05:20:44.354Z,2.07
2017-02-19T05:21:24.987Z,2
2017-02-19T05:22:05.668Z,2.02
2017-02-19T05:22:46.262Z,2.08
2017-02-19T05:23:26.825Z,2.06
2017-02-19T05:24:07.495Z,2.07
2017-02-19T05:24:48.175Z,2.1
2017-02-19T05:25:28.745Z,2.04
2017-02-19T05:26:09.364Z,2.06
2017-02-19T05:26:49.973Z,2.06
2017-02-19T05:27:30.547Z,2.06
2017-02-19T05:28:11.183Z,2.02
2017-02-19T05:28:51.832Z,2.07
2017-02-19T05:29:32.388Z,2.1
2017-02-19T05:30:13.045Z,2.02
2017-02-19T05:30:53.690Z,2.06
2017-02-19T05:31:34.334Z,1.99
2017-02-19T05:32:14.992Z,1.99
2017-02-19T05:32:55.645Z,2
2017-02-19T05:33:36.296Z,1.95
2017-02-19T05:34:16.956Z,1.97
2017-02-19T05:34:57.510Z,1.97
2017-02-19T05:35:38.151Z,1.97
2017-02-19T05:36:18.811Z,1.92
2017-02-19T05:36:59.379Z,1.95
2017-02-19T05:37:39.960Z,1.94
2017-02-19T05:38:20.558Z,1.94
2017-02-19T05:39:01.210Z,1.92
2017-02-19T05:39:41.794Z,2
2017-02-19T05:40:22.418Z,2.08
2017-02-19T05:41:03.069Z,2.04
2017-02-19T05:41:43.721Z,2.04
2017-02-19T05:42:24.376Z,2.02
2017-02-19T05:43:05.023Z,2.11
2017-02-19T05:43:45.677Z,2.08
2017-02-19T05:44:26.334Z,2.06
2017-02-19T05:45:07.904Z,2.06
2017-02-19T05:45:48.559Z,2.13
2017-02-19T05:46:29.212Z,2.13
2017-02-19T05:47:09.864Z,2.11
2017-02-19T05:47:50.519Z,2.1
2017-02-19T05:48:31.170Z,2.14
2017-02-19T05:49:11.820Z,2.08
2017-02-19T05:49:52.408Z,2
2017-02-19T05:50:32.985Z,2.02
2017-02-19T05:51:13.599Z,2.11
2017-02-19T05:51:54.228Z,2.17
2017-02-19T05:52:34.787Z,2.02
2017-02-19T05:53:16.378Z,2.15
2017-02-19T05:53:57.007Z,2.17
2017-02-19T05:54:37.563Z,2.17
2017-02-19T05:55:18.233Z,2.17
2017-02-19T05:55:58.865Z,2.17
2017-02-19T05:56:39.422Z,2.15
2017-02-19T05:57:21.025Z,2.06
2017-02-19T05:58:01.699Z,2.13
2017-02-19T05:58:42.294Z,2.06
2017-02-19T05:59:22.850Z,2.15
2017-02-19T06:00:03.501Z,2.14
2017-02-19T06:00:44.110Z,2.15
2017-02-19T06:01:24.699Z,2.11
2017-02-19T06:02:05.301Z,2.07
2017-02-19T06:02:45.869Z,2.14
2017-02-19T06:03:26.523Z,2.18
2017-02-19T06:04:07.109Z,2.14
2017-02-19T06:04:47.665Z,2.06
2017-02-19T06:05:28.371Z,2.13
2017-02-19T06:06:08.977Z,2.13
2017-02-19T06:06:49.535Z,2.14
2017-02-19T06:07:31.195Z,2.15
2017-02-19T06:08:11.860Z,2.24
2017-02-19T06:08:52.424Z,2.17
2017-02-19T06:09:33.064Z,2.18
2017-02-19T06:10:13.706Z,2.17
2017-02-19T06:10:54.263Z,2.17
2017-02-19T06:11:34.914Z,2.2
2017-02-19T06:12:15.512Z,2.18
2017-02-19T06:12:56.102Z,2.24
2017-02-19T06:13:36.764Z,2.18
2017-02-19T06:14:19.341Z,2.2
2017-02-19T06:14:59.903Z,2.18
2017-02-19T06:15:40.493Z,2.22
2017-02-19T06:16:21.107Z,2.2
2017-02-19T06:17:01.690Z,2.18
2017-02-19T06:17:42.264Z,2.22
2017-02-19T06:18:23.881Z,2.29
2017-02-19T06:19:04.475Z,2.25
2017-02-19T06:19:45.044Z,2.24
2017-02-19T06:20:25.638Z,2.29
2017-02-19T06:21:06.214Z,2.26
2017-02-19T06:21:46.771Z,2.28
2017-02-19T06:22:28.440Z,2.39
2017-02-19T06:23:09.080Z,2.33
2017-02-19T06:23:49.645Z,2.31
2017-02-19T06:24:30.283Z,2.32
2017-02-19T06:25:10.941Z,2.39
2017-02-19T06:25:51.540Z,2.33
2017-02-19T06:26:32.129Z,2.39
2017-02-19T06:27:12.676Z,2.32
2017-02-19T06:27:53.266Z,2.39
2017-02-19T06:28:33.948Z,2.44
2017-02-19T06:29:14.509Z,2.33
2017-02-19T06:29:55.062Z,2.43
2017-02-19T06:30:36.647Z,2.36
2017-02-19T06:31:17.198Z,2.47
2017-02-19T06:31:57.778Z,2.46
2017-02-19T06:32:38.380Z,2.39
2017-02-19T06:33:19.945Z,2.56
2017-02-19T06:34:00.539Z,2.49
2017-02-19T06:34:41.099Z,2.43
2017-02-19T06:35:21.666Z,2.46
2017-02-19T06:36:02.227Z,2.53
2017-02-19T06:36:42.798Z,2.56
2017-02-19T06:37:23.377Z,2.56
2017-02-19T06:38:03.938Z,2.57
2017-02-19T06:38:44.532Z,2.53
2017-02-19T06:39:25.090Z,2.53
2017-02-19T06:40:05.687Z,2.54
2017-02-19T06:40:46.260Z,2.53
2017-02-19T06:41:26.832Z,2.6
2017-02-19T06:42:07.394Z,2.53
2017-02-19T06:42:47.963Z,2.54
2017-02-19T06:43:28.535Z,2.57
2017-02-19T06:44:09.089Z,2.54
2017-02-19T06:44:49.663Z,2.53
2017-02-19T06:45:30.239Z,2.49
2017-02-19T06:46:10.889Z,2.54
2017-02-19T06:46:51.513Z,2.6
2017-02-19T06:47:32.095Z,2.51
2017-02-19T06:48:12.670Z,2.62
2017-02-19T06:48:53.243Z,2.61
2017-02-19T06:49:33.810Z,2.61
2017-02-19T06:50:14.421Z,2.6
2017-02-19T06:50:54.981Z,2.65
2017-02-19T06:51:35.565Z,2.65
2017-02-19T06:52:16.148Z,2.67
2017-02-19T06:52:56.736Z,2.64
2017-02-19T06:53:37.342Z,2.64
2017-02-19T06:54:17.925Z,2.64
2017-02-19T06:54:59.502Z,2.61
2017-02-19T06:55:40.078Z,2.65
2017-02-19T06:56:20.664Z,2.69
2017-02-19T06:57:01.267Z,2.68
2017-02-19T06:57:41.836Z,2.65
2017-02-19T06:58:22.431Z,2.62
2017-02-19T06:59:03.008Z,2.61
2017-02-19T06:59:43.586Z,2.65
2017-02-19T07:00:24.177Z,2.68
2017-02-19T07:01:04.742Z,2.71
2017-02-19T07:01:45.325Z,2.69
2017-02-19T07:02:25.895Z,2.68
2017-02-19T07:03:06.868Z,2.74
2017-02-19T07:03:47.439Z,2.71
2017-02-19T07:04:28.029Z,2.69
2017-02-19T07:05:08.593Z,2.74
2017-02-19T07:05:49.156Z,2.72
2017-02-19T07:06:29.749Z,2.75
2017-02-19T07:07:10.339Z,2.69
2017-02-19T07:07:50.901Z,2.8
2017-02-19T07:08:31.463Z,2.82
2017-02-19T07:09:12.025Z,2.83
2017-02-19T07:09:52.611Z,2.86
2017-02-19T07:10:33.165Z,2.89
2017-02-19T07:11:13.741Z,2.77
2017-02-19T07:11:54.342Z,2.79
2017-02-19T07:12:34.945Z,2.79
2017-02-19T07:13:15.508Z,2.83
2017-02-19T07:13:56.092Z,2.8
2017-02-19T07:14:36.665Z,2.85
2017-02-19T07:15:17.233Z,2.83
2017-02-19T07:15:57.799Z,2.85
2017-02-19T07:16:38.373Z,2.85
2017-02-19T07:17:18.924Z,2.82
2017-02-19T07:17:59.522Z,2.79
2017-02-19T07:18:40.107Z,2.83
2017-02-19T07:19:20.677Z,2.87
2017-02-19T07:20:01.258Z,2.8
2017-02-19T07:20:41.830Z,2.82
2017-02-19T07:21:22.431Z,2.83
2017-02-19T07:22:02.995Z,2.82
2017-02-19T07:22:43.585Z,2.95
2017-02-19T07:23:24.196Z,2.95
2017-02-19T07:24:04.775Z,2.9
2017-02-19T07:24:45.367Z,2.98
2017-02-19T07:25:25.954Z,2.98
2017-02-19T07:26:06.548Z,3
2017-02-19T07:26:47.115Z,3.07
2017-02-19T07:27:27.681Z,3.03
2017-02-19T07:28:08.255Z,2.93
2017-02-19T07:28:49.017Z,3.07
2017-02-19T07:29:30.567Z,2.98
2017-02-19T07:30:11.122Z,3.05
2017-02-19T07:30:51.687Z,3.04
2017-02-19T07:31:32.295Z,3.1
2017-02-19T07:32:12.869Z,3.11
2017-02-19T07:32:53.441Z,3.08
2017-02-19T07:33:35.023Z,3.18
2017-02-19T07:34:15.589Z,3.13
2017-02-19T07:34:56.190Z,3.16
2017-02-19T07:35:36.798Z,3.22
2017-02-19T07:36:17.408Z,3.21
2017-02-19T07:36:57.978Z,3.23
2017-02-19T07:37:38.584Z,3.22
2017-02-19T07:38:19.173Z,3.22
2017-02-19T07:38:59.805Z,3.28
2017-02-19T07:39:40.362Z,3.31
2017-02-19T07:40:20.938Z,3.34
2017-02-19T07:41:01.516Z,3.37
2017-02-19T07:41:42.131Z,3.29
2017-02-19T07:42:22.718Z,3.4
2017-02-19T07:43:03.364Z,3.4
2017-02-19T07:43:43.993Z,3.47
2017-02-19T07:44:24.561Z,3.44
2017-02-19T07:45:05.200Z,3.42
2017-02-19T07:45:45.849Z,3.44
2017-02-19T07:46:26.411Z,3.58
2017-02-19T07:47:07.063Z,3.58
2017-02-19T07:47:47.743Z,3.63
2017-02-19T07:48:28.384Z,3.6
2017-02-19T07:49:09.037Z,3.7
2017-02-19T07:49:49.693Z,3.63
2017-02-19T07:50:30.324Z,3.76
2017-02-19T07:51:10.924Z,3.66
2017-02-19T07:51:51.516Z,3.8
2017-02-19T07:52:32.090Z,3.84
2017-02-19T07:53:12.732Z,3.8
2017-02-19T07:53:53.329Z,3.84
2017-02-19T07:54:33.924Z,3.86
2017-02-19T07:55:14.481Z,3.81
2017-02-19T07:55:55.137Z,3.86
2017-02-19T07:56:35.779Z,3.92
2017-02-19T07:57:16.366Z,3.94
2017-02-19T07:57:57.016Z,3.92
2017-02-19T07:58:37.636Z,4.02
2017-02-19T07:59:18.214Z,3.96
2017-02-19T07:59:58.847Z,3.96
2017-02-19T08:00:39.595Z,3.96
2017-02-19T08:01:20.209Z,3.95
2017-02-19T08:02:00.809Z,4.08
2017-02-19T08:02:41.469Z,4.13
2017-02-19T08:03:22.143Z,4.12
2017-02-19T08:04:02.788Z,4.17
2017-02-19T08:04:43.441Z,4.19
2017-02-19T08:05:24.086Z,4.19
2017-02-19T08:06:06.722Z,4.22
2017-02-19T08:06:47.289Z,4.17
2017-02-19T08:07:27.856Z,4.26
2017-02-19T08:08:08.523Z,4.31
2017-02-19T08:08:49.134Z,4.4
2017-02-19T08:09:29.738Z,4.32
2017-02-19T08:10:10.300Z,4.34
2017-02-19T08:10:50.933Z,4.34
2017-02-19T08:11:31.617Z,4.38
2017-02-19T08:12:12.240Z,4.37
2017-02-19T08:12:52.893Z,4.42
2017-02-19T08:13:33.544Z,4.49
2017-02-19T08:14:14.243Z,4.41
2017-02-19T08:14:55.890Z,4.48
2017-02-19T08:15:36.570Z,4.38
2017-02-19T08:16:17.223Z,4.42
2017-02-19T08:16:57.799Z,4.42
2017-02-19T08:17:38.399Z,4.4
2017-02-19T08:18:19.102Z,4.37
2017-02-19T08:18:59.744Z,4.48
2017-02-19T08:19:40.315Z,4.44
2017-02-19T08:20:20.862Z,4.45
2017-02-19T08:21:01.475Z,4.41
2017-02-19T08:21:42.110Z,4.41
2017-02-19T08:22:22.760Z,4.52
2017-02-19T08:23:03.402Z,4.45
2017-02-19T08:23:44.056Z,4.48
2017-02-19T08:24:24.708Z,4.48
2017-02-19T08:25:05.377Z,4.49
2017-02-19T08:25:46.016Z,4.53
2017-02-19T08:26:26.704Z,4.56
2017-02-19T08:27:07.310Z,4.58
2017-02-19T08:27:47.864Z,4.56
2017-02-19T08:28:28.520Z,4.59
2017-02-19T08:29:09.326Z,4.6
2017-02-19T08:29:50.941Z,4.63
2017-02-19T08:30:31.496Z,4.63
2017-02-19T08:31:12.179Z,4.6
2017-02-19T08:31:52.857Z,4.62
2017-02-19T08:32:33.449Z,4.62
2017-02-19T08:33:14.032Z,4.62
2017-02-19T08:33:54.663Z,4.6
2017-02-19T08:34:35.259Z,4.7
2017-02-19T08:35:15.857Z,4.66
2017-02-19T08:35:56.395Z,4.66
2017-02-19T08:36:36.977Z,4.68
2017-02-19T08:37:18.647Z,4.73
2017-02-19T08:37:59.299Z,4.73
2017-02-19T08:38:39.963Z,4.75
2017-02-19T08:39:20.615Z,4.8
2017-02-19T08:40:01.253Z,4.84
2017-02-19T08:40:41.932Z,4.86
2017-02-19T08:41:22.570Z,4.84
2017-02-19T08:42:03.240Z,4.82
2017-02-19T08:42:43.867Z,4.9
2017-02-19T08:43:25.450Z,4.87
2017-02-19T08:44:08.045Z,4.84
2017-02-19T08:44:48.695Z,4.97
2017-02-19T08:45:30.258Z,4.92
2017-02-19T08:46:11.840Z,5.05
2017-02-19T08:46:52.495Z,4.89
2017-02-19T08:47:33.151Z,5.05
2017-02-19T08:48:13.801Z,4.96
2017-02-19T08:48:54.465Z,4.92
2017-02-19T08:49:35.104Z,4.99
2017-02-19T08:50:15.764Z,4.92
2017-02-19T08:50:56.431Z,4.97
2017-02-19T08:51:37.052Z,5.08
2017-02-19T08:52:17.606Z,5.05
2017-02-19T08:52:58.279Z,5.1
2017-02-19T08:53:38.913Z,5.1
2017-02-19T08:54:19.476Z,5.11
2017-02-19T08:55:01.056Z,5.1
2017-02-19T08:55:41.708Z,5.14
2017-02-19T08:56:22.258Z,5.15
2017-02-19T08:57:02.846Z,5.21
2017-02-19T08:57:44.414Z,5.23
2017-02-19T08:58:24.981Z,5.15
2017-02-19T08:59:05.582Z,5.23
2017-02-19T08:59:48.186Z,5.25
2017-02-19T09:00:28.836Z,5.17
2017-02-19T09:01:09.475Z,5.28
2017-02-19T09:01:51.205Z,5.25
2017-02-19T09:02:31.866Z,5.25
2017-02-19T09:03:12.468Z,5.26
2017-02-19T09:03:53.114Z,5.2
2017-02-19T09:04:34.682Z,5.23
2017-02-19T09:05:15.353Z,5.18